Bedford, WY

10:33 AM MDT on August 21, 2014 (GMT -0600)
RAWS B-T PORTABLE #1 WEINER RX WY US | Change Station
CLOSE
Current Station
Personal Weather Station
Location: Etna, WY
Elevation: 6622 ft
Nearby Weather Stations

Elev 6622 ft 43.06 °N, 110.86 °W | Updated 42 minutes ago

Light Rain
Light Rain
49 °F
Feels Like 49 °F
N
1
Wind Variable Wind from SW
Gusts 2.0 mph

Today
High -- | Low -- °F
--% Chance of Precip.
Yesterday
High -- | Low -- °F
Precip. -- in
6:36 AM 8:16 PM
Waning Crescent, 13% visible
Pressure 30.19 in
Visibility 10.0 miles
Clouds Mostly Cloudy 1000 ft
Mostly Cloudy 1500 ft
Mostly Cloudy 2600 ft
Windchill 49 °F
Dew Point 49 °F
Humidity 100%
Rainfall 0.80 in
Snow Depth Not available.
UV 3 out of 12
Pollen 7.80 out of 12
Air Quality Not available.
Flu Activity Not available.
METAR KAFO 211615Z AUTO 17005KT 10SM -RA BKN010 BKN015 BKN026 11/09 A3019 RMK AO2

More Conditions Fewer Conditions

Pressure 30.19 in
Visibility 10.0 miles
Clouds Mostly Cloudy 1000 ft
Mostly Cloudy 1500 ft
Mostly Cloudy 2600 ft
Windchill 49 °F
Dew Point 49 °F
Humidity 100%
Rainfall 0.80 in
Snow Depth Not available.
UV 3 out of 12
Pollen 7.80 out of 12
Air Quality Not available.
Flu Activity Not available.
METAR KAFO 211615Z AUTO 17005KT 10SM -RA BKN010 BKN015 BKN026 11/09 A3019 RMK AO2

More Conditions Fewer Conditions

10-Day Weather Forecast

Almanac

Astronomy

Aug. 21, 2014 Rise Set
Actual Time 6:36 AM MDT 8:16 PM MDT
Civil Twilight 6:06 AM MDT 8:46 PM MDT
Nautical Twilight 5:29 AM MDT 9:22 PM MDT
Astronomical Twilight 4:50 AM MDT 10:01 PM MDT
Moon 3:07 AM MDT 5:49 PM MDT
Length of Visible Light 14h 39m
Length of Day
13h 40m
Tomorrow will be 2m 41s shorter.
Waning Crescent, 13% of the Moon is Illuminated
Today
Waning Crescent
Aug 25
New
Sep 2
First Quarter
Sep 8
Full
Sep 15
Last Quarter

Today's Extremes

State Highs State Lows

Community

WunderPhotos

Upload Photos

1,745,957 photos uploaded!

Nearby

Snow Depth

Station Depth Elevation
Salt River Summit 1 in 7600 ft
Granite Creek 0 in 6770 ft
East Rim Divide 0 in 7930 ft
Phillips Bench 0 in 8200 ft
Loomis Park 0 in 8240 ft

Earthquake Activity

City Distance Mag. Time & Date
No recent earthquake activity has been reported nearby.
Minimum magnitude displayed is 2.5.

Coastal Water Temperatures

Place Temperature
No Stations Reporting

Nearby Weather Stations